Time;durP1;ratioP1;P1;durP2;ratioP2;P2;SDS_P1;SDS_P2;PMS_P1;PMS_P2;Temp;Humidity;BMP_temperature;BMP_pressure;BME280_temperature;BME280_humidity;BME280_pressure;Samples;Min_cycle;Max_cycle;Signal;HPM_P1;HPM_P2
2021/04/14 00:00:39;;;;;;;6.55;4.23;;;;;;;4.28;62.78;100512.26;234103;1174;115036;-66
2021/04/14 00:05:46;;;;;;;9.90;6.35;;;;;;;4.09;62.88;100510.08;233887;1174;114561;-66
2021/04/14 00:10:51;;;;;;;5.48;4.38;;;;;;;3.88;63.47;100520.42;234050;1173;115140;-66
2021/04/14 00:15:58;;;;;;;7.38;6.10;;;;;;;3.66;64.32;100528.11;233397;1176;114959;-66
2021/04/14 00:21:02;;;;;;;8.13;4.85;;;;;;;3.53;65.93;100527.81;232523;1175;116415;-66
2021/04/14 00:26:07;;;;;;;9.10;6.98;;;;;;;3.42;65.91;100524.70;232902;1175;114972;-64
2021/04/14 00:31:11;;;;;;;3.00;2.80;;;;;;;3.37;67.22;100531.30;233267;1176;114776;-67
2021/04/14 00:36:14;;;;;;;8.80;5.45;;;;;;;3.27;67.27;100522.78;232773;1175;115167;-67
2021/04/14 00:41:16;;;;;;;10.15;6.80;;;;;;;3.25;67.67;100534.47;232588;1174;116178;-69
2021/04/14 00:46:19;;;;;;;6.95;5.38;;;;;;;3.28;67.72;100526.23;233686;1175;115487;-68
2021/04/14 00:51:22;;;;;;;5.50;4.75;;;;;;;3.32;67.78;100530.19;233182;1174;115586;-64
2021/04/14 00:56:25;;;;;;;6.45;5.63;;;;;;;3.29;67.63;100535.79;233011;1176;116040;-65
2021/04/14 01:01:28;;;;;;;6.78;4.58;;;;;;;3.25;68.39;100530.03;233548;1174;115838;-65
2021/04/14 01:06:33;;;;;;;10.13;6.35;;;;;;;3.26;68.84;100531.67;232606;1174;115890;-67
2021/04/14 01:11:36;;;;;;;10.43;6.10;;;;;;;3.28;68.95;100534.14;232633;1176;116632;-66
2021/04/14 01:16:39;;;;;;;6.53;5.48;;;;;;;3.27;68.72;100537.77;233064;1174;117393;-68
2021/04/14 01:21:43;;;;;;;5.00;4.50;;;;;;;3.23;69.01;100545.17;232650;1170;115202;-66
2021/04/14 01:26:48;;;;;;;4.10;3.50;;;;;;;3.12;69.70;100542.05;232582;1175;116856;-66
2021/04/14 01:31:52;;;;;;;7.20;5.00;;;;;;;2.94;69.50;100547.52;233537;1174;115531;-65
2021/04/14 01:36:54;;;;;;;8.53;6.53;;;;;;;2.89;70.18;100548.01;233270;1174;115612;-66
2021/04/14 01:41:57;;;;;;;6.75;5.18;;;;;;;2.90;69.45;100551.47;234950;1174;116272;-66
2021/04/14 01:47:01;;;;;;;8.45;5.35;;;;;;;2.86;70.67;100534.34;234321;1174;115272;-66
2021/04/14 01:52:04;;;;;;;7.05;5.60;;;;;;;2.80;70.76;100535.00;235193;1174;115373;-65
2021/04/14 01:57:08;;;;;;;7.05;5.00;;;;;;;2.76;70.47;100531.05;234379;1174;115108;-68
2021/04/14 02:02:13;;;;;;;4.43;3.47;;;;;;;2.69;70.98;100536.99;234537;1174;114798;-67
2021/04/14 02:07:16;;;;;;;8.58;5.95;;;;;;;2.71;70.84;100531.56;233035;1176;114946;-66
2021/04/14 02:12:19;;;;;;;7.23;4.93;;;;;;;2.65;70.31;100530.41;233362;1176;116531;-68
2021/04/14 02:17:21;;;;;;;7.33;4.90;;;;;;;2.60;70.82;100526.62;232853;1170;115694;-68
2021/04/14 02:22:24;;;;;;;7.93;3.75;;;;;;;2.56;71.07;100522.66;232661;1176;115078;-69
2021/04/14 02:27:27;;;;;;;8.33;5.87;;;;;;;2.53;71.65;100517.72;233798;1174;115325;-64
2021/04/14 02:32:29;;;;;;;11.63;6.23;;;;;;;2.56;71.89;100525.30;232602;1174;116168;-66
2021/04/14 02:37:31;;;;;;;7.90;5.85;;;;;;;2.59;71.65;100511.81;232711;1174;115823;-64
2021/04/14 02:42:36;;;;;;;6.55;5.60;;;;;;;2.57;72.09;100519.05;232729;1174;115862;-65
2021/04/14 02:47:38;;;;;;;8.70;6.50;;;;;;;2.52;72.72;100531.86;233127;1176;115407;-65
2021/04/14 02:52:41;;;;;;;7.70;6.10;;;;;;;2.46;72.94;100517.55;232566;1171;115670;-64
2021/04/14 02:57:45;;;;;;;9.28;5.48;;;;;;;2.44;72.31;100519.55;232842;1177;115894;-64
2021/04/14 03:02:49;;;;;;;11.55;6.60;;;;;;;2.41;71.67;100505.89;232967;1175;116548;-64
2021/04/14 03:07:58;;;;;;;11.73;6.23;;;;;;;2.35;72.56;100507.36;232699;1176;138776;-65
2021/04/14 03:13:04;;;;;;;3.18;2.80;;;;;;;2.28;72.93;100487.94;233782;1175;116384;-65
2021/04/14 03:18:13;;;;;;;7.45;5.98;;;;;;;2.20;73.07;100474.77;232725;1174;115528;-65
2021/04/14 03:23:18;;;;;;;14.95;5.68;;;;;;;2.21;73.22;100463.27;233095;1174;115444;-65
2021/04/14 03:28:21;;;;;;;7.20;5.25;;;;;;;2.23;73.06;100466.55;235010;1174;115512;-65
2021/04/14 03:33:24;;;;;;;9.05;6.00;;;;;;;2.32;73.44;100468.22;234661;1174;114819;-65
2021/04/14 03:38:27;;;;;;;9.33;5.67;;;;;;;2.33;73.05;100470.69;235238;1174;115287;-65
2021/04/14 03:43:31;;;;;;;9.08;6.48;;;;;;;2.30;73.78;100457.86;233670;1174;116037;-64
2021/04/14 03:48:34;;;;;;;7.45;4.90;;;;;;;2.33;73.15;100467.23;233796;1174;114993;-65
2021/04/14 03:53:39;;;;;;;9.38;6.10;;;;;;;2.31;73.40;100466.57;235061;1174;114624;-66
2021/04/14 03:58:46;;;;;;;7.10;5.38;;;;;;;2.29;73.88;100474.63;234563;1175;114793;-66
2021/04/14 04:03:51;;;;;;;9.97;7.47;;;;;;;2.23;73.57;100474.45;234057;1176;115502;-65
2021/04/14 04:08:55;;;;;;;10.10;6.90;;;;;;;2.24;74.03;100476.09;233472;1177;116195;-64
2021/04/14 04:13:58;;;;;;;6.93;6.03;;;;;;;2.35;74.43;100484.50;233320;1174;115562;-64
2021/04/14 04:19:02;;;;;;;8.73;6.20;;;;;;;2.45;73.91;100486.13;232912;1174;116014;-65
2021/04/14 04:24:09;;;;;;;7.03;4.78;;;;;;;2.45;74.08;100488.76;233275;1174;115615;-65
2021/04/14 04:29:13;;;;;;;9.55;7.05;;;;;;;2.41;74.42;100498.00;233239;1174;114494;-64
2021/04/14 04:34:17;;;;;;;12.23;7.85;;;;;;;2.44;74.36;100497.67;232627;1174;115047;-65
2021/04/14 04:39:22;;;;;;;7.20;5.13;;;;;;;2.45;74.37;100502.74;233079;1172;114664;-66
2021/04/14 04:44:25;;;;;;;7.80;5.60;;;;;;;2.41;74.80;100498.81;233052;1176;115017;-65
2021/04/14 04:49:29;;;;;;;6.40;5.38;;;;;;;2.49;75.07;100508.50;232663;1174;118440;-65
2021/04/14 04:54:33;;;;;;;7.20;4.77;;;;;;;2.46;75.18;100512.28;232947;1176;115978;-65
2021/04/14 04:59:36;;;;;;;11.48;7.85;;;;;;;2.48;74.51;100505.05;232809;1176;116255;-64
2021/04/14 05:04:41;;;;;;;8.50;6.53;;;;;;;2.56;74.69;100510.33;232754;1175;118191;-64
2021/04/14 05:09:45;;;;;;;7.73;5.27;;;;;;;2.57;74.73;100513.78;233545;1174;114902;-64
2021/04/14 05:14:49;;;;;;;9.17;6.27;;;;;;;2.55;75.38;100516.58;233053;1174;116475;-65
2021/04/14 05:19:53;;;;;;;16.05;7.53;;;;;;;2.68;74.98;100516.09;232752;1174;115576;-64
2021/04/14 05:24:57;;;;;;;8.43;7.00;;;;;;;2.82;75.96;100515.42;233839;1174;115476;-64
2021/04/14 05:30:01;;;;;;;5.95;4.70;;;;;;;2.88;75.92;100521.84;233176;1174;115770;-64
2021/04/14 05:35:06;;;;;;;5.90;5.40;;;;;;;2.91;75.64;100522.34;232696;1174;115473;-64
2021/04/14 05:40:11;;;;;;;9.40;6.77;;;;;;;3.00;75.40;100523.98;233672;1174;115783;-64
2021/04/14 05:45:30;;;;;;;13.13;7.80;;;;;;;3.14;75.79;100513.73;234942;1174;116790;-64
2021/04/14 05:50:33;;;;;;;8.00;6.05;;;;;;;3.23;76.01;100510.92;235195;1174;115230;-64
2021/04/14 05:55:36;;;;;;;13.17;6.93;;;;;;;3.35;74.98;100511.41;235130;1174;114825;-64
2021/04/14 06:00:39;;;;;;;10.37;6.40;;;;;;;3.46;75.51;100510.20;234423;1176;114803;-64
2021/04/14 06:05:53;;;;;;;10.65;7.40;;;;;;;3.57;74.70;100508.03;233692;1174;115420;-64
2021/04/14 06:10:59;;;;;;;8.73;7.20;;;;;;;3.64;74.31;100503.72;233300;1174;115592;-64
2021/04/14 06:16:08;;;;;;;7.45;6.25;;;;;;;3.65;74.70;100502.73;232594;1174;116135;-64
2021/04/14 06:21:14;;;;;;;10.03;8.13;;;;;;;3.67;74.87;100498.08;232768;1174;116483;-64
2021/04/14 06:31:42;;;;;;;12.80;8.83;;;;;;;3.78;75.23;100499.53;233041;1175;115353;-65
2021/04/14 06:36:50;;;;;;;13.37;8.83;;;;;;;3.93;74.71;100507.55;232786;1176;117370;-64
2021/04/14 06:42:30;;;;;;;6.75;5.18;;;;;;;4.04;74.71;100509.78;233247;1174;116161;-66
2021/04/14 06:47:51;;;;;;;12.40;8.05;;;;;;;4.01;74.84;100504.84;232538;1175;115543;-66
2021/04/14 06:52:59;;;;;;;11.88;7.63;;;;;;;4.03;74.77;100493.13;232594;1175;115584;-64
2021/04/14 06:58:29;;;;;;;13.20;9.47;;;;;;;4.09;75.27;100496.89;233350;1174;116150;-64
2021/04/14 07:03:46;;;;;;;13.18;8.33;;;;;;;4.13;75.48;100497.37;232884;1174;114751;-65
2021/04/14 07:09:01;;;;;;;13.43;7.70;;;;;;;4.18;75.65;100500.31;233556;1175;114883;-64
2021/04/14 07:14:05;;;;;;;10.28;4.73;;;;;;;4.35;74.61;100493.91;232977;1176;114906;-64
2021/04/14 07:19:08;;;;;;;15.55;5.60;;;;;;;4.62;74.65;100495.19;232510;1175;114913;-64
2021/04/14 07:24:50;;;;;;;9.23;4.60;;;;;;;4.76;74.19;100494.42;233832;1174;115986;-63
2021/04/14 07:30:31;;;;;;;6.40;3.20;;;;;;;4.83;74.41;100492.72;233859;1174;115660;-64
2021/04/14 07:35:41;;;;;;;8.05;2.55;;;;;;;4.84;74.28;100486.44;233455;1167;115578;-64
2021/04/14 07:41:13;;;;;;;6.13;3.10;;;;;;;4.97;73.55;100491.91;233480;1175;115030;-64
2021/04/14 07:46:17;;;;;;;8.43;3.83;;;;;;;5.11;73.49;100492.13;235078;1174;115011;-65
2021/04/14 07:51:22;;;;;;;14.47;3.70;;;;;;;5.15;73.08;100483.66;235149;1175;114623;-64
2021/04/14 07:56:28;;;;;;;6.80;4.13;;;;;;;5.31;73.09;100477.36;234871;1174;115423;-65
2021/04/14 08:01:35;;;;;;;14.60;3.97;;;;;;;5.52;72.66;100472.14;234221;1174;114830;-65
2021/04/14 08:06:39;;;;;;;7.37;3.10;;;;;;;5.69;72.42;100475.42;235120;1174;115122;-65
2021/04/14 08:11:50;;;;;;;2.35;1.75;;;;;;;5.77;71.91;100466.57;232576;1172;115397;-64
2021/04/14 08:16:56;;;;;;;7.87;3.17;;;;;;;5.83;71.75;100465.80;232654;1174;114631;-64
2021/04/14 08:22:07;;;;;;;8.88;2.85;;;;;;;5.81;71.49;100460.69;233417;1174;115172;-64
2021/04/14 08:27:17;;;;;;;3.55;1.88;;;;;;;5.87;71.71;100457.31;232592;1173;114784;-64
2021/04/14 08:32:28;;;;;;;8.17;1.70;;;;;;;5.93;71.13;100458.42;232436;1175;115927;-64
2021/04/14 08:37:32;;;;;;;14.30;4.10;;;;;;;5.95;70.79;100453.77;233235;1176;114848;-64
2021/04/14 08:42:38;;;;;;;9.60;4.13;;;;;;;6.14;70.92;100452.33;232538;1176;114870;-65
2021/04/14 08:47:51;;;;;;;7.35;3.35;;;;;;;6.17;70.28;100446.66;232627;1174;115356;-64
2021/04/14 08:53:00;;;;;;;13.80;7.40;;;;;;;6.20;69.80;100446.28;232813;1174;114585;-64
2021/04/14 08:58:05;;;;;;;12.43;5.73;;;;;;;6.22;69.58;100453.03;233017;1174;115296;-64
2021/04/14 09:03:14;;;;;;;8.50;4.37;;;;;;;6.28;69.53;100444.34;233126;1174;115685;-65
2021/04/14 09:08:24;;;;;;;6.55;3.55;;;;;;;6.34;69.67;100454.17;232426;1174;115086;-64
2021/04/14 09:13:35;;;;;;;10.00;3.63;;;;;;;6.31;69.17;100446.61;234053;1174;114457;-64
2021/04/14 09:18:43;;;;;;;8.55;3.05;;;;;;;6.41;68.77;100439.17;233492;1174;115217;-65
2021/04/14 09:24:03;;;;;;;5.75;2.10;;;;;;;6.57;68.41;100437.25;233853;1174;114546;-66
2021/04/14 09:29:28;;;;;;;6.55;2.73;;;;;;;6.68;68.32;100432.27;233033;1175;115921;-65
2021/04/14 09:34:36;;;;;;;4.00;2.30;;;;;;;6.82;67.63;100430.52;233594;1174;114964;-65
2021/04/14 09:39:46;;;;;;;9.25;2.20;;;;;;;6.91;66.99;100431.19;232919;1175;116428;-65
2021/04/14 09:44:51;;;;;;;7.20;4.95;;;;;;;6.89;66.61;100435.86;233475;1174;115741;-64
2021/04/14 09:49:58;;;;;;;8.85;2.98;;;;;;;6.89;66.40;100428.73;232597;1175;116008;-65
2021/04/14 09:55:15;;;;;;;6.33;3.33;;;;;;;6.90;65.97;100427.72;235012;1174;116854;-65
2021/04/14 10:00:24;;;;;;;5.35;2.25;;;;;;;6.84;65.25;100428.48;234848;1171;114581;-65
2021/04/14 10:05:30;;;;;;;7.40;3.25;;;;;;;6.89;65.00;100423.44;234924;1176;115653;-64
2021/04/14 10:10:47;;;;;;;4.70;2.67;;;;;;;6.87;65.67;100424.63;233559;1174;115805;-64
2021/04/14 10:15:52;;;;;;;11.10;3.75;;;;;;;6.93;64.91;100427.34;232817;1175;116061;-64
2021/04/14 10:21:10;;;;;;;6.58;2.33;;;;;;;6.98;64.48;100421.45;232643;1177;115943;-64
2021/04/14 10:26:13;;;;;;;6.90;2.73;;;;;;;6.96;64.26;100416.34;233613;1174;116628;-64
2021/04/14 10:31:22;;;;;;;6.53;3.25;;;;;;;7.03;63.42;100414.53;232654;1175;117304;-65
2021/04/14 10:36:34;;;;;;;3.10;2.50;;;;;;;7.00;63.03;100407.00;232602;1175;115662;-64
2021/04/14 10:41:37;;;;;;;6.53;2.30;;;;;;;6.92;62.97;100409.80;232893;1174;115840;-65
2021/04/14 10:46:40;;;;;;;2.27;1.57;;;;;;;6.87;61.65;100406.09;232700;1174;115372;-65
2021/04/14 10:51:49;;;;;;;3.15;1.20;;;;;;;6.75;61.26;100403.14;232508;1176;114702;-65
2021/04/14 10:57:10;;;;;;;1.50;1.40;;;;;;;6.64;60.98;100407.16;232375;1175;115626;-65
2021/04/14 11:02:21;;;;;;;1.90;1.40;;;;;;;6.70;61.79;100413.52;232659;1174;114833;-65
2021/04/14 11:07:26;;;;;;;4.57;2.57;;;;;;;6.51;60.40;100406.23;233061;1175;115692;-64
2021/04/14 11:12:30;;;;;;;4.23;2.08;;;;;;;6.14;60.71;100400.20;232581;1175;114889;-65
2021/04/14 11:17:34;;;;;;;2.13;1.27;;;;;;;6.08;61.03;100411.58;233258;1174;115833;-64
2021/04/14 11:22:45;;;;;;;5.03;2.83;;;;;;;5.96;61.26;100402.48;232710;1176;116616;-64
2021/04/14 11:28:19;;;;;;;1.90;1.30;;;;;;;5.97;61.83;100397.00;232365;1174;114776;-64
2021/04/14 11:33:41;;;;;;;4.90;2.10;;;;;;;6.14;61.26;100394.91;234367;1176;115329;-64
2021/04/14 11:39:17;;;;;;;3.05;1.30;;;;;;;6.19;60.72;100386.41;234449;1175;114595;-65
2021/04/14 11:44:25;;;;;;;2.15;1.30;;;;;;;6.23;60.61;100388.48;234185;1174;114551;-65
2021/04/14 11:49:36;;;;;;;2.40;1.73;;;;;;;6.42;61.19;100379.88;234770;1174;115053;-64
2021/04/14 11:54:40;;;;;;;3.67;2.57;;;;;;;6.61;60.82;100389.00;235220;1174;114375;-65
2021/04/14 11:59:47;;;;;;;5.58;2.28;;;;;;;6.71;61.10;100397.44;235173;1174;114956;-64
2021/04/14 12:05:02;;;;;;;5.90;3.23;;;;;;;6.77;61.53;100390.52;234258;1174;114304;-65
2021/04/14 12:10:06;;;;;;;5.43;2.23;;;;;;;6.69;60.29;100398.64;234198;1174;115133;-66
2021/04/14 12:15:10;;;;;;;3.03;1.70;;;;;;;6.43;60.99;100393.94;233869;1175;114575;-64
2021/04/14 12:20:13;;;;;;;4.77;1.70;;;;;;;6.19;61.26;100391.70;233391;1174;115043;-66
2021/04/14 12:25:16;;;;;;;1.30;1.17;;;;;;;5.96;61.23;100408.59;232488;1174;115201;-64
2021/04/14 12:30:23;;;;;;;2.45;1.95;;;;;;;5.71;62.24;100405.45;233470;1170;115281;-64
2021/04/14 12:35:28;;;;;;;1.63;1.13;;;;;;;5.52;62.17;100416.61;232815;1170;115088;-64
2021/04/14 12:40:35;;;;;;;8.70;2.20;;;;;;;5.34;62.57;100418.84;232703;1174;115319;-64
2021/04/14 12:45:46;;;;;;;;;;;;;;;5.10;63.59;100419.13;233349;1175;114847;-63
2021/04/14 12:51:03;;;;;;;7.35;2.15;;;;;;;5.08;64.72;100416.67;234837;1175;102440;-63
2021/04/14 12:56:07;;;;;;;8.03;2.77;;;;;;;5.26;65.00;100416.28;232608;1174;114788;-64
2021/04/14 13:01:10;;;;;;;2.80;2.10;;;;;;;5.35;64.64;100409.91;233151;1174;115490;-64
2021/04/14 13:06:34;;;;;;;12.87;3.67;;;;;;;5.37;65.65;100408.72;233405;1174;114970;-65
2021/04/14 13:11:42;;;;;;;3.10;2.75;;;;;;;5.60;66.05;100407.75;232528;1174;115662;-67
2021/04/14 13:16:55;;;;;;;3.65;2.90;;;;;;;5.73;66.00;100403.45;232365;1175;115146;-64
2021/04/14 13:22:06;;;;;;;15.00;3.80;;;;;;;5.84;65.27;100388.06;233107;1175;115485;-64
2021/04/14 13:27:09;;;;;;;4.75;3.38;;;;;;;5.82;65.29;100392.72;232664;1174;115852;-64
2021/04/14 13:32:26;;;;;;;4.30;2.17;;;;;;;5.69;66.00;100390.78;232423;1174;114786;-64
2021/04/14 13:37:32;;;;;;;;;;;;;;;5.46;65.54;100395.41;233914;1174;114950;-65
2021/04/14 13:42:47;;;;;;;5.05;4.13;;;;;;;5.30;66.29;100402.52;234764;1174;103105;-68
2021/04/14 13:48:05;;;;;;;9.05;4.25;;;;;;;5.36;66.37;100391.21;234884;1174;115014;-68
2021/04/14 13:53:14;;;;;;;7.37;4.23;;;;;;;5.39;67.31;100395.31;233679;1174;115945;-66
2021/04/14 13:58:34;;;;;;;4.28;3.20;;;;;;;5.50;67.30;100392.20;235049;1174;115924;-65
2021/04/14 14:03:38;;;;;;;5.83;3.03;;;;;;;5.54;67.10;100392.63;235128;1176;114552;-66
2021/04/14 14:08:47;;;;;;;6.25;3.35;;;;;;;5.51;67.53;100388.52;233545;1174;115453;-67
2021/04/14 14:14:00;;;;;;;4.67;4.27;;;;;;;5.37;67.04;100386.75;233853;1175;114821;-68
2021/04/14 14:19:27;;;;;;;2.53;2.13;;;;;;;5.21;67.87;100400.15;234371;1174;115595;-68
2021/04/14 14:24:32;;;;;;;5.33;3.60;;;;;;;5.08;67.90;100398.17;233901;1170;115872;-65
2021/04/14 14:29:38;;;;;;;4.00;3.05;;;;;;;5.03;68.50;100390.78;233405;1175;114619;-66
2021/04/14 14:34:43;;;;;;;7.28;5.20;;;;;;;4.90;68.64;100398.52;232738;1174;115328;-65
2021/04/14 14:40:11;;;;;;;2.30;2.10;;;;;;;4.68;68.08;100387.03;233094;1174;114294;-66
2021/04/14 14:45:28;;;;;;;5.57;3.10;;;;;;;4.33;69.37;100399.07;233288;1176;115959;-66
2021/04/14 14:50:36;;;;;;;5.73;4.30;;;;;;;4.05;69.56;100409.35;232435;1167;114877;-65
2021/04/14 14:55:47;;;;;;;5.53;4.73;;;;;;;3.99;70.81;100417.14;232971;1174;115570;-65
2021/04/14 15:01:01;;;;;;;6.87;5.20;;;;;;;3.99;70.78;100411.86;233134;1176;115175;-65
2021/04/14 15:06:07;;;;;;;6.70;4.70;;;;;;;4.07;70.52;100414.45;233285;1176;115088;-65
2021/04/14 15:11:11;;;;;;;10.15;5.20;;;;;;;4.16;71.22;100413.41;233758;1174;114890;-66
2021/04/14 15:16:16;;;;;;;6.80;6.20;;;;;;;4.21;71.91;100416.34;232650;1171;114989;-64
2021/04/14 15:21:21;;;;;;;8.25;5.48;;;;;;;4.26;71.88;100408.72;232617;1174;116251;-64
2021/04/14 15:26:28;;;;;;;7.15;6.08;;;;;;;4.24;72.10;100410.71;232719;1175;115315;-68
2021/04/14 15:31:33;;;;;;;6.23;5.30;;;;;;;4.23;72.05;100410.89;232596;1174;116891;-67
2021/04/14 15:36:38;;;;;;;8.35;5.95;;;;;;;4.26;71.96;100421.09;232550;1176;117254;-67
2021/04/14 15:41:43;;;;;;;10.83;7.13;;;;;;;4.27;71.87;100415.64;233121;1174;117179;-67
2021/04/14 15:46:48;;;;;;;7.70;7.00;;;;;;;4.26;72.51;100403.44;234332;1176;116717;-67
2021/04/14 15:51:53;;;;;;;4.30;3.70;;;;;;;4.25;72.87;100412.36;232761;1175;203347;-67
2021/04/14 15:56:56;;;;;;;10.20;5.77;;;;;;;4.20;72.58;100406.78;234930;1175;115024;-68
2021/04/14 16:02:05;;;;;;;7.30;5.30;;;;;;;4.26;72.34;100403.44;234895;1174;117957;-67
2021/04/14 16:07:09;;;;;;;6.80;5.77;;;;;;;4.30;72.72;100402.06;235043;1176;119556;-66
2021/04/14 16:12:13;;;;;;;6.93;4.40;;;;;;;4.20;72.86;100404.14;234967;1174;115783;-67
2021/04/14 16:17:18;;;;;;;7.75;5.95;;;;;;;4.23;73.18;100406.43;234840;1176;115439;-66
2021/04/14 16:22:21;;;;;;;6.40;4.43;;;;;;;4.26;73.14;100407.90;234830;1174;115534;-66
2021/04/14 16:27:24;;;;;;;5.33;4.83;;;;;;;4.19;73.00;100406.95;233590;1174;115833;-66
2021/04/14 16:32:26;;;;;;;7.10;4.73;;;;;;;4.09;73.36;100401.91;232671;1175;115966;-65
2021/04/14 16:37:29;;;;;;;8.50;6.45;;;;;;;3.98;73.27;100408.41;232392;1176;115943;-66
2021/04/14 16:42:32;;;;;;;8.40;5.13;;;;;;;3.94;73.43;100406.32;233542;1174;115246;-65
2021/04/14 16:47:34;;;;;;;5.93;5.13;;;;;;;3.90;73.56;100400.57;233456;1174;117426;-70
2021/04/14 16:52:38;;;;;;;7.10;4.30;;;;;;;3.78;73.34;100403.77;232533;1174;116210;-71
2021/04/14 16:57:42;;;;;;;2.70;2.40;;;;;;;3.63;73.43;100412.44;233658;1176;115528;-70
2021/04/14 17:02:46;;;;;;;5.65;3.90;;;;;;;3.50;73.12;100412.16;233476;1174;115681;-69
2021/04/14 17:07:51;;;;;;;5.57;3.90;;;;;;;3.33;73.82;100414.07;232493;1176;116014;-69
2021/04/14 17:12:58;;;;;;;3.85;3.03;;;;;;;3.23;73.36;100407.35;233388;1170;115244;-69
2021/04/14 17:18:01;;;;;;;3.15;2.75;;;;;;;3.22;73.91;100419.70;232667;1176;116364;-65
2021/04/14 17:23:07;;;;;;;5.88;4.20;;;;;;;3.13;73.95;100415.44;232384;1175;116110;-65
2021/04/14 17:28:13;;;;;;;6.30;3.50;;;;;;;3.01;74.76;100411.55;233240;1175;115239;-65
2021/04/14 17:33:17;;;;;;;5.30;3.30;;;;;;;2.94;74.94;100419.30;232687;1175;115552;-65
2021/04/14 17:38:22;;;;;;;3.50;3.20;;;;;;;2.88;74.41;100411.25;233535;1174;115250;-68
2021/04/14 17:43:27;;;;;;;4.87;2.20;;;;;;;2.81;75.14;100424.25;233173;1170;115394;-67
2021/04/14 17:48:31;;;;;;;4.85;2.10;;;;;;;2.83;74.46;100439.89;233888;1174;114895;-67
2021/04/14 17:53:35;;;;;;;2.70;1.75;;;;;;;2.77;75.10;100424.75;233328;1175;115159;-66
2021/04/14 17:58:39;;;;;;;2.25;1.30;;;;;;;2.70;75.63;100430.71;233459;1176;119233;-66
2021/04/14 18:03:43;;;;;;;1.90;1.70;;;;;;;2.65;75.86;100440.09;232833;1176;117048;-66
2021/04/14 18:08:51;;;;;;;2.13;1.88;;;;;;;2.61;75.54;100444.03;234394;1175;115670;-65
2021/04/14 18:13:55;;;;;;;3.25;1.90;;;;;;;2.61;75.43;100444.86;234995;1174;118769;-67
2021/04/14 18:18:58;;;;;;;2.00;1.40;;;;;;;2.60;75.83;100445.84;234339;1176;115632;-67
2021/04/14 18:24:02;;;;;;;1.80;1.70;;;;;;;2.55;75.12;100442.88;234130;1176;115518;-66
2021/04/14 18:29:08;;;;;;;2.13;1.48;;;;;;;2.52;75.46;100448.47;233585;1176;115205;-64
2021/04/14 18:34:12;;;;;;;1.30;1.10;;;;;;;2.40;75.86;100451.62;232997;1174;116595;-66
2021/04/14 18:39:18;;;;;;;1.03;0.70;;;;;;;2.32;76.17;100455.88;233695;1174;116010;-65
2021/04/14 18:44:23;;;;;;;3.07;1.30;;;;;;;2.36;76.07;100457.20;233824;1174;115180;-65
2021/04/14 18:49:27;;;;;;;2.28;1.30;;;;;;;2.35;76.21;100455.56;232658;1174;115741;-65
2021/04/14 18:54:31;;;;;;;4.13;2.57;;;;;;;2.36;76.66;100454.58;233113;1174;223161;-65
2021/04/14 18:59:35;;;;;;;2.30;1.73;;;;;;;2.38;76.04;100453.59;232829;1175;115666;-66
2021/04/14 19:04:41;;;;;;;2.93;1.58;;;;;;;2.43;76.75;100452.12;232246;1176;115751;-66
2021/04/14 19:09:46;;;;;;;3.37;0.97;;;;;;;2.46;75.78;100449.13;232575;1176;115432;-63
2021/04/14 19:14:50;;;;;;;1.40;1.30;;;;;;;2.45;75.94;100444.03;232790;1175;114353;-64
2021/04/14 19:19:53;;;;;;;4.10;1.40;;;;;;;2.42;76.88;100441.75;232356;1175;114440;-64
2021/04/14 19:24:56;;;;;;;2.90;1.20;;;;;;;2.38;75.94;100440.44;232730;1176;114920;-63
2021/04/14 19:30:04;;;;;;;2.80;1.75;;;;;;;2.38;76.32;100438.63;232796;1176;115674;-65
2021/04/14 19:35:10;;;;;;;2.68;1.40;;;;;;;2.45;76.32;100444.03;232626;1174;115146;-65
2021/04/14 19:40:19;;;;;;;1.47;1.30;;;;;;;2.47;77.09;100437.62;233216;1174;114837;-66
2021/04/14 19:45:26;;;;;;;4.95;1.80;;;;;;;2.50;77.13;100429.39;233230;1174;115248;-65
2021/04/14 19:50:35;;;;;;;2.40;2.20;;;;;;;2.55;75.97;100434.16;233053;1175;115189;-66
2021/04/14 19:55:40;;;;;;;3.10;2.80;;;;;;;2.56;76.38;100430.55;232527;1174;114884;-66
2021/04/14 20:00:45;;;;;;;3.15;1.90;;;;;;;2.53;76.63;100429.06;232992;1175;115171;-66
2021/04/14 20:05:49;;;;;;;2.15;1.95;;;;;;;2.50;76.42;100429.39;235127;1176;114576;-68
2021/04/14 20:10:55;;;;;;;4.90;2.87;;;;;;;2.57;76.24;100427.75;235176;1174;114486;-66
2021/04/14 20:15:59;;;;;;;2.93;1.43;;;;;;;2.60;75.84;100429.23;233939;1174;115510;-67
2021/04/14 20:21:04;;;;;;;1.47;1.33;;;;;;;2.59;76.00;100427.59;235071;1171;114720;-66
2021/04/14 20:26:07;;;;;;;5.27;2.63;;;;;;;2.61;76.13;100421.17;235110;1174;115026;-67
2021/04/14 20:31:10;;;;;;;3.23;2.00;;;;;;;2.65;76.41;100414.59;235033;1174;114451;-66
2021/04/14 20:36:13;;;;;;;1.27;1.00;;;;;;;2.62;76.02;100411.46;233793;1176;114596;-65
2021/04/14 20:41:20;;;;;;;1.97;1.20;;;;;;;2.58;76.26;100421.50;234188;1174;114185;-66
2021/04/14 20:46:23;;;;;;;1.60;1.50;;;;;;;2.53;75.42;100418.54;232568;1175;114490;-66
2021/04/14 20:51:31;;;;;;;1.70;1.60;;;;;;;2.47;76.46;100416.56;233754;1169;114959;-65
2021/04/14 20:56:34;;;;;;;2.33;2.13;;;;;;;2.33;76.84;100425.96;233544;1174;116075;-64
2021/04/14 21:01:37;;;;;;;3.20;1.50;;;;;;;2.29;76.26;100418.55;232803;1175;115163;-67
2021/04/14 21:06:40;;;;;;;4.23;1.90;;;;;;;2.18;76.49;100422.33;232454;1169;115656;-65
2021/04/14 21:11:44;;;;;;;3.45;1.80;;;;;;;2.11;77.05;100418.73;233611;1174;114841;-67
2021/04/14 21:16:48;;;;;;;2.15;1.83;;;;;;;2.05;76.75;100418.55;233408;1174;115734;-66
2021/04/14 21:21:51;;;;;;;1.67;1.50;;;;;;;2.03;76.60;100410.82;233230;1175;114384;-66
2021/04/14 21:26:56;;;;;;;4.43;2.43;;;;;;;2.08;77.48;100408.53;232400;1170;115133;-66
2021/04/14 21:32:00;;;;;;;3.15;2.50;;;;;;;2.11;77.32;100405.58;232664;1174;115068;-66
2021/04/14 21:37:04;;;;;;;2.05;1.60;;;;;;;2.08;77.42;100403.27;232595;1174;115344;-64
2021/04/14 21:42:08;;;;;;;3.65;2.50;;;;;;;2.05;77.59;100398.34;233702;1174;115367;-65
2021/04/14 21:47:11;;;;;;;4.35;2.68;;;;;;;2.07;77.03;100400.80;233069;1174;115395;-64
2021/04/14 21:52:14;;;;;;;2.23;1.98;;;;;;;2.07;77.12;100398.17;233577;1174;114478;-63
2021/04/14 21:57:19;;;;;;;3.07;2.07;;;;;;;2.02;77.20;100393.40;233558;1176;115079;-63
2021/04/14 22:02:23;;;;;;;2.50;1.70;;;;;;;1.96;77.60;100397.50;234528;1175;115825;-64
2021/04/14 22:07:27;;;;;;;1.98;1.88;;;;;;;1.96;76.95;100399.30;233162;1175;115285;-64
2021/04/14 22:12:30;;;;;;;2.10;1.60;;;;;;;1.99;77.22;100402.44;233657;1174;115016;-63
2021/04/14 22:17:34;;;;;;;2.63;2.43;;;;;;;1.95;77.21;100389.77;235143;1174;114836;-64
2021/04/14 22:22:39;;;;;;;1.03;1.00;;;;;;;1.86;77.31;100385.48;235145;1175;114352;-64
2021/04/14 22:27:43;;;;;;;1.37;1.37;;;;;;;1.85;77.46;100381.20;235024;1174;115425;-64
2021/04/14 22:32:50;;;;;;;2.83;1.48;;;;;;;1.84;77.04;100379.56;234636;1168;114908;-64
2021/04/14 22:37:55;;;;;;;1.90;1.80;;;;;;;1.84;77.76;100371.67;235098;1176;114550;-64
2021/04/14 22:42:59;;;;;;;2.23;2.03;;;;;;;1.85;77.45;100373.32;235126;1176;114470;-64
2021/04/14 22:48:03;;;;;;;2.68;2.20;;;;;;;1.83;77.75;100367.43;233807;1174;114767;-64
2021/04/14 22:53:09;;;;;;;2.57;2.37;;;;;;;1.86;77.08;100367.08;232837;1171;115167;-64
2021/04/14 22:58:14;;;;;;;2.73;2.53;;;;;;;1.86;77.54;100361.82;234028;1175;115220;-66
2021/04/14 23:03:21;;;;;;;3.97;3.67;;;;;;;1.85;78.17;100353.11;232642;1170;115061;-66
2021/04/14 23:08:34;;;;;;;1.47;1.37;;;;;;;1.79;77.70;100355.59;232477;1174;114815;-64
2021/04/14 23:13:38;;;;;;;3.43;3.13;;;;;;;1.77;78.00;100339.98;234047;1174;115137;-64
2021/04/14 23:18:41;;;;;;;4.20;2.70;;;;;;;1.80;77.73;100346.72;233464;1174;115072;-64
2021/04/14 23:23:45;;;;;;;7.70;4.30;;;;;;;1.78;78.19;100335.55;232551;1174;115189;-64
2021/04/14 23:28:49;;;;;;;4.30;3.95;;;;;;;1.74;77.85;100331.59;232551;1174;114992;-63
2021/04/14 23:33:56;;;;;;;3.00;2.80;;;;;;;1.75;78.35;100333.24;232962;1174;114422;-64